createdAt,value
2018-09-24T00:01:58.365Z,7.13
2018-09-24T00:04:25.285Z,6.80
2018-09-24T00:06:52.184Z,4.00
2018-09-24T00:09:19.077Z,5.17
2018-09-24T00:11:45.986Z,5.47
2018-09-24T00:14:16.981Z,5.23
2018-09-24T00:16:47.103Z,7.50
2018-09-24T00:19:14.481Z,6.60
2018-09-24T00:21:41.384Z,6.50
2018-09-24T00:24:08.529Z,10.60
2018-09-24T00:26:35.453Z,9.67
2018-09-24T00:29:02.341Z,9.10
2018-09-24T00:31:30.285Z,4.47
2018-09-24T00:33:57.181Z,6.87
2018-09-24T00:36:24.090Z,5.13
2018-09-24T00:38:51.017Z,6.90
2018-09-24T00:41:17.937Z,9.80
2018-09-24T00:43:44.891Z,7.17
2018-09-24T00:46:11.818Z,10.33
2018-09-24T00:48:38.877Z,6.43
2018-09-24T00:51:05.784Z,6.27
2018-09-24T00:53:32.664Z,7.97
2018-09-24T00:55:59.585Z,8.60
2018-09-24T00:58:26.523Z,6.87
2018-09-24T01:00:53.421Z,9.73
2018-09-24T01:03:20.313Z,6.90
2018-09-24T01:05:47.241Z,7.23
2018-09-24T01:08:14.133Z,13.70
2018-09-24T01:10:41.040Z,7.57
2018-09-24T01:13:07.936Z,8.77
2018-09-24T01:15:34.827Z,10.40
2018-09-24T01:18:01.760Z,7.43
2018-09-24T01:20:28.648Z,8.63
2018-09-24T01:22:55.540Z,9.60
2018-09-24T01:25:22.440Z,8.47
2018-09-24T01:27:49.337Z,8.43
2018-09-24T01:30:16.298Z,7.17
2018-09-24T01:32:43.204Z,7.20
2018-09-24T01:35:10.097Z,9.37
2018-09-24T01:37:36.988Z,9.47
2018-09-24T01:40:03.922Z,8.53
2018-09-24T01:42:30.829Z,11.83
2018-09-24T01:44:57.716Z,11.47
2018-09-24T01:47:24.639Z,9.57
2018-09-24T01:49:51.540Z,9.67
2018-09-24T01:52:18.461Z,6.63
2018-09-24T01:54:45.351Z,11.83
2018-09-24T01:57:16.988Z,12.20
2018-09-24T01:59:50.368Z,7.90
2018-09-24T02:02:17.843Z,9.00
2018-09-24T02:04:44.773Z,10.00
2018-09-24T02:07:11.681Z,11.37
2018-09-24T02:09:38.598Z,9.27
2018-09-24T02:12:06.369Z,8.57
2018-09-24T02:14:33.300Z,7.97
2018-09-24T02:17:00.235Z,8.73
2018-09-24T02:19:27.139Z,7.83
2018-09-24T02:21:54.057Z,9.13
2018-09-24T02:24:20.967Z,9.33
2018-09-24T02:26:47.843Z,6.47
2018-09-24T02:29:14.744Z,10.00
2018-09-24T02:31:41.664Z,4.50
2018-09-24T02:34:09.384Z,6.87
2018-09-24T02:36:36.341Z,7.47
2018-09-24T02:39:04.948Z,5.57
2018-09-24T02:41:31.821Z,10.97
2018-09-24T02:43:58.726Z,7.10
2018-09-24T02:46:25.633Z,6.67
2018-09-24T02:48:52.580Z,6.30
2018-09-24T02:51:19.464Z,6.93
2018-09-24T02:53:46.375Z,6.13
2018-09-24T02:56:13.277Z,6.97
2018-09-24T02:58:40.184Z,8.27
2018-09-24T03:01:07.100Z,8.00
2018-09-24T03:03:33.983Z,8.67
2018-09-24T03:06:00.889Z,5.83
2018-09-24T03:08:27.785Z,7.97
2018-09-24T03:11:00.161Z,7.37
2018-09-24T03:13:27.065Z,12.30
2018-09-24T03:15:53.931Z,9.37
2018-09-24T03:18:20.829Z,7.60
2018-09-24T03:20:47.720Z,12.83
2018-09-24T03:23:14.612Z,7.87
2018-09-24T03:25:41.496Z,9.63
2018-09-24T03:28:08.384Z,7.73
2018-09-24T03:30:39.692Z,8.63
2018-09-24T03:33:06.621Z,6.63
2018-09-24T03:35:33.900Z,7.30
2018-09-24T03:38:00.828Z,4.93
2018-09-24T03:40:27.788Z,7.37
2018-09-24T03:42:55.569Z,7.53
2018-09-24T03:45:22.461Z,10.93
2018-09-24T03:47:49.465Z,5.00
2018-09-24T03:50:16.381Z,5.80
2018-09-24T03:52:43.766Z,7.67
2018-09-24T03:55:10.703Z,6.67
2018-09-24T03:57:37.597Z,7.00
2018-09-24T04:00:04.513Z,5.80
2018-09-24T04:02:31.456Z,7.40
2018-09-24T04:05:04.062Z,8.27
2018-09-24T04:07:36.676Z,8.03
2018-09-24T04:10:09.368Z,6.63
2018-09-24T04:12:42.018Z,7.73
2018-09-24T04:15:14.704Z,6.53
2018-09-24T04:17:47.357Z,7.53
2018-09-24T04:20:19.975Z,6.40
2018-09-24T04:22:52.562Z,3.73
2018-09-24T04:25:25.250Z,6.20
2018-09-24T04:27:57.885Z,4.97
2018-09-24T04:30:30.509Z,3.53
2018-09-24T04:33:03.249Z,4.53
2018-09-24T04:35:35.912Z,3.27
2018-09-24T04:38:08.613Z,4.90
2018-09-24T04:40:41.393Z,4.57
2018-09-24T04:43:14.078Z,3.30
2018-09-24T04:45:46.761Z,3.20
2018-09-24T04:48:19.355Z,2.50
2018-09-24T04:50:52.137Z,4.47
2018-09-24T04:53:24.777Z,6.53
2018-09-24T04:55:57.475Z,7.03
2018-09-24T04:58:30.120Z,5.27
2018-09-24T05:01:02.860Z,3.20
2018-09-24T05:03:35.447Z,12.27
2018-09-24T05:06:08.116Z,13.23
2018-09-24T05:08:40.744Z,10.43
2018-09-24T05:11:13.505Z,6.07
2018-09-24T05:13:46.123Z,8.00
2018-09-24T05:16:18.841Z,5.57
2018-09-24T05:18:51.525Z,8.33
2018-09-24T05:21:24.199Z,2.87
2018-09-24T05:23:56.880Z,6.00
2018-09-24T05:26:29.512Z,5.73
2018-09-24T05:29:02.261Z,7.00
2018-09-24T05:31:35.018Z,7.83
2018-09-24T05:34:07.699Z,6.77
2018-09-24T05:36:40.403Z,5.50
2018-09-24T05:39:13.680Z,7.87
2018-09-24T05:41:46.621Z,9.57
2018-09-24T05:44:19.252Z,7.03
2018-09-24T05:46:51.948Z,8.47
2018-09-24T05:49:24.608Z,13.23
2018-09-24T05:51:57.297Z,10.23
2018-09-24T05:54:29.997Z,8.47
2018-09-24T05:57:02.664Z,6.83
2018-09-24T05:59:35.373Z,7.80
2018-09-24T06:02:08.053Z,5.27
2018-09-24T06:04:47.664Z,6.17
2018-09-24T06:07:20.360Z,8.80
2018-09-24T06:09:53.016Z,5.33
2018-09-24T06:12:25.716Z,5.27
2018-09-24T06:14:58.365Z,2.53
2018-09-24T06:17:31.083Z,6.37
2018-09-24T06:20:03.713Z,4.80
2018-09-24T06:22:36.413Z,7.07
2018-09-24T06:25:09.102Z,4.47
2018-09-24T06:27:41.848Z,7.10
2018-09-24T06:30:14.593Z,3.03
2018-09-24T06:32:47.193Z,4.23
2018-09-24T06:35:19.775Z,5.63
2018-09-24T06:37:52.420Z,4.17
2018-09-24T06:40:25.205Z,2.97
2018-09-24T06:42:57.808Z,4.23
2018-09-24T06:45:30.550Z,3.67
2018-09-24T06:48:03.221Z,3.67
2018-09-24T06:50:35.887Z,3.70
2018-09-24T06:53:08.632Z,4.67
2018-09-24T06:55:41.290Z,3.90
2018-09-24T06:58:14.091Z,2.23
2018-09-24T07:00:46.773Z,7.27
2018-09-24T07:03:19.477Z,4.47
2018-09-24T07:05:52.114Z,4.83
2018-09-24T07:08:24.718Z,6.33
2018-09-24T07:10:57.331Z,7.70
2018-09-24T07:13:30.028Z,7.23
2018-09-24T07:16:02.752Z,7.73
2018-09-24T07:18:35.464Z,3.27
2018-09-24T07:21:08.203Z,6.13
2018-09-24T07:23:40.790Z,5.03
2018-09-24T07:26:13.431Z,5.60
2018-09-24T07:28:46.051Z,3.90
2018-09-24T07:31:18.705Z,7.70
2018-09-24T07:33:51.334Z,8.37
2018-09-24T07:36:23.983Z,4.40
2018-09-24T07:38:56.678Z,6.97
2018-09-24T07:41:29.348Z,7.50
2018-09-24T07:44:02.052Z,7.00
2018-09-24T07:46:34.667Z,6.03
2018-09-24T07:49:07.416Z,7.10
2018-09-24T07:51:39.996Z,5.57
2018-09-24T07:54:12.672Z,4.67
2018-09-24T07:56:45.237Z,5.10
2018-09-24T07:59:17.957Z,7.33
2018-09-24T08:01:50.517Z,5.73
2018-09-24T08:04:23.156Z,4.63
2018-09-24T08:06:55.776Z,3.57
2018-09-24T08:09:28.556Z,6.73
2018-09-24T08:12:01.213Z,3.53
2018-09-24T08:14:33.797Z,3.43
2018-09-24T08:17:06.448Z,2.50
2018-09-24T08:19:39.054Z,3.37
2018-09-24T08:22:11.712Z,2.23
2018-09-24T08:24:44.320Z,1.80
2018-09-24T08:27:16.891Z,5.10
2018-09-24T08:29:49.572Z,2.00
2018-09-24T08:32:22.226Z,2.43
2018-09-24T08:34:54.951Z,3.40
2018-09-24T08:37:27.560Z,4.97
2018-09-24T08:40:00.121Z,3.70
2018-09-24T08:42:32.739Z,3.13
2018-09-24T08:45:05.389Z,2.97
2018-09-24T08:47:37.940Z,2.17
2018-09-24T08:50:10.659Z,3.43
2018-09-24T08:52:43.302Z,2.60
2018-09-24T08:55:16.008Z,1.37
2018-09-24T08:57:48.651Z,1.33
2018-09-24T09:00:21.360Z,2.03
2018-09-24T09:03:00.713Z,2.90
2018-09-24T09:05:33.465Z,1.97
2018-09-24T09:08:06.123Z,1.97
2018-09-24T09:10:38.820Z,1.67
2018-09-24T09:13:11.508Z,1.27
2018-09-24T09:15:44.148Z,1.40
2018-09-24T09:18:16.804Z,2.83
2018-09-24T09:20:49.925Z,2.70
2018-09-24T09:23:22.457Z,3.97
2018-09-24T09:25:55.104Z,1.70
2018-09-24T09:28:27.816Z,3.07
2018-09-24T09:31:00.468Z,4.10
2018-09-24T09:33:33.180Z,2.70
2018-09-24T09:36:05.892Z,3.10
2018-09-24T09:38:38.562Z,3.90
2018-09-24T09:41:11.401Z,3.03
2018-09-24T09:43:43.877Z,4.10
2018-09-24T09:46:16.669Z,1.73
2018-09-24T09:48:49.220Z,2.63
2018-09-24T09:51:21.920Z,1.73
2018-09-24T09:53:54.596Z,3.23
2018-09-24T09:56:27.284Z,2.67
2018-09-24T09:58:59.927Z,1.43
2018-09-24T10:01:32.597Z,4.53
2018-09-24T10:04:05.204Z,2.90
2018-09-24T10:06:38.989Z,3.23
2018-09-24T10:09:12.545Z,4.80
2018-09-24T10:11:45.264Z,3.20
2018-09-24T10:14:17.927Z,7.07
2018-09-24T10:16:50.597Z,3.03
2018-09-24T10:19:23.271Z,4.43
2018-09-24T10:21:56.046Z,4.67
2018-09-24T10:24:28.758Z,3.60
2018-09-24T10:27:01.445Z,2.10
2018-09-24T10:29:34.121Z,1.83
2018-09-24T10:32:06.796Z,2.53
2018-09-24T10:34:39.472Z,2.17
2018-09-24T10:37:12.220Z,3.37
2018-09-24T10:39:44.945Z,2.47
2018-09-24T10:42:17.640Z,5.07
2018-09-24T10:44:50.227Z,2.43
2018-09-24T10:47:22.904Z,1.93
2018-09-24T10:49:55.582Z,6.73
2018-09-24T10:52:28.364Z,5.37
2018-09-24T10:55:00.985Z,2.60
2018-09-24T10:57:33.743Z,3.17
2018-09-24T11:00:06.400Z,5.33
2018-09-24T11:02:39.025Z,3.37
2018-09-24T11:05:11.712Z,2.73
2018-09-24T11:07:44.353Z,3.47
2018-09-24T11:10:17.013Z,3.53
2018-09-24T11:12:49.713Z,2.93
2018-09-24T11:15:22.472Z,4.53
2018-09-24T11:17:55.120Z,3.50
2018-09-24T11:20:27.826Z,4.63
2018-09-24T11:23:00.454Z,6.13
2018-09-24T11:25:33.129Z,3.93
2018-09-24T11:28:05.824Z,5.77
2018-09-24T11:30:38.513Z,3.37
2018-09-24T11:33:11.280Z,3.97
2018-09-24T11:35:43.918Z,3.80
2018-09-24T11:38:16.576Z,3.33
2018-09-24T11:40:49.259Z,3.97
2018-09-24T11:43:21.984Z,4.17
2018-09-24T11:45:54.573Z,5.33
2018-09-24T11:48:27.176Z,4.03
2018-09-24T11:50:59.831Z,4.50
2018-09-24T11:53:32.523Z,4.30
2018-09-24T11:56:05.184Z,3.67
2018-09-24T11:58:37.790Z,5.57
2018-09-24T12:01:10.429Z,7.77
2018-09-24T12:03:43.049Z,6.20
2018-09-24T12:06:15.713Z,6.07
2018-09-24T12:08:48.326Z,4.60
2018-09-24T12:11:20.992Z,3.53
2018-09-24T12:13:53.699Z,3.63
2018-09-24T12:16:26.354Z,3.63
2018-09-24T12:18:59.009Z,3.43
2018-09-24T12:21:31.656Z,2.87
2018-09-24T12:24:04.435Z,2.27
2018-09-24T12:26:37.046Z,2.37
2018-09-24T12:29:09.716Z,3.13
2018-09-24T12:31:42.433Z,2.77
2018-09-24T12:34:15.087Z,1.50
2018-09-24T12:36:47.862Z,2.87
2018-09-24T12:39:20.487Z,3.80
2018-09-24T12:41:53.234Z,2.03
2018-09-24T12:44:25.922Z,2.63
2018-09-24T12:46:58.588Z,3.77
2018-09-24T12:49:31.313Z,2.10
2018-09-24T12:52:03.971Z,3.27
2018-09-24T12:54:36.571Z,1.83
2018-09-24T12:57:09.260Z,2.50
2018-09-24T12:59:41.964Z,4.27
2018-09-24T13:02:14.655Z,7.30
2018-09-24T13:04:47.284Z,3.83
2018-09-24T13:07:19.923Z,3.60
2018-09-24T13:09:52.633Z,3.37
2018-09-24T13:12:25.320Z,7.87
2018-09-24T13:14:58.008Z,4.33
2018-09-24T13:17:30.687Z,1.97
2018-09-24T13:20:03.288Z,2.87
2018-09-24T13:22:35.961Z,2.80
2018-09-24T13:25:08.724Z,4.90
2018-09-24T13:27:41.453Z,3.60
2018-09-24T13:30:14.190Z,4.63
2018-09-24T13:32:46.977Z,6.20
2018-09-24T13:35:19.801Z,7.13
2018-09-24T13:37:53.385Z,3.83
2018-09-24T13:40:25.988Z,5.60
2018-09-24T13:42:58.648Z,4.97
2018-09-24T13:45:31.304Z,4.07
2018-09-24T13:48:03.938Z,4.73
2018-09-24T13:50:36.660Z,3.47
2018-09-24T13:53:09.340Z,4.07
2018-09-24T13:55:43.028Z,4.23
2018-09-24T13:58:15.631Z,4.97
2018-09-24T14:00:49.099Z,3.37
2018-09-24T14:03:21.790Z,5.23
2018-09-24T14:05:54.393Z,3.13
2018-09-24T14:08:27.074Z,5.83
2018-09-24T14:10:59.781Z,6.00
2018-09-24T14:13:32.372Z,4.37
2018-09-24T14:16:05.026Z,8.20
2018-09-24T14:18:37.800Z,3.37
2018-09-24T14:21:10.552Z,3.47
2018-09-24T14:23:43.248Z,4.90
2018-09-24T14:26:15.874Z,5.43
2018-09-24T14:28:48.572Z,4.83
2018-09-24T14:31:21.331Z,2.03
2018-09-24T14:33:54.188Z,3.23
2018-09-24T14:36:26.909Z,3.20
2018-09-24T14:38:59.617Z,3.50
2018-09-24T14:41:32.223Z,4.97
2018-09-24T14:44:04.923Z,4.97
2018-09-24T14:46:37.586Z,3.17
2018-09-24T14:49:10.291Z,2.47
2018-09-24T14:51:42.904Z,4.43
2018-09-24T14:54:15.641Z,1.87
2018-09-24T14:56:48.224Z,3.03
2018-09-24T14:59:20.901Z,6.73
2018-09-24T15:01:53.624Z,3.37
2018-09-24T15:04:26.365Z,4.30
2018-09-24T15:06:59.067Z,5.03
2018-09-24T15:09:31.726Z,3.83
2018-09-24T15:12:04.435Z,2.80
2018-09-24T15:14:37.063Z,3.30
2018-09-24T15:17:09.727Z,1.40
2018-09-24T15:19:42.405Z,3.77
2018-09-24T15:22:15.139Z,3.37
2018-09-24T15:24:47.808Z,3.10
2018-09-24T15:27:20.467Z,3.80
2018-09-24T15:29:53.184Z,3.30
2018-09-24T15:32:25.736Z,4.73
2018-09-24T15:34:58.452Z,3.73
2018-09-24T15:37:31.124Z,3.40
2018-09-24T15:40:03.885Z,3.23
2018-09-24T15:42:36.544Z,4.03
2018-09-24T15:45:09.272Z,10.27
2018-09-24T15:47:41.972Z,6.23
2018-09-24T15:50:14.658Z,6.43
2018-09-24T15:52:47.280Z,6.67
2018-09-24T15:55:19.949Z,4.57
2018-09-24T15:57:52.642Z,5.07
2018-09-24T16:00:25.348Z,7.80
2018-09-24T16:02:58.096Z,5.93
2018-09-24T16:05:30.685Z,7.50
2018-09-24T16:08:03.313Z,7.27
2018-09-24T16:10:35.973Z,8.23
2018-09-24T16:13:08.653Z,7.63
2018-09-24T16:15:41.337Z,9.43
2018-09-24T16:18:13.961Z,6.07
2018-09-24T16:20:46.594Z,9.13
2018-09-24T16:23:19.234Z,11.43
2018-09-24T16:25:51.895Z,8.00
2018-09-24T16:28:24.616Z,10.57
2018-09-24T16:30:57.285Z,7.40
2018-09-24T16:33:29.916Z,8.97
2018-09-24T16:36:02.526Z,7.57
2018-09-24T16:38:35.262Z,6.37
2018-09-24T16:41:07.952Z,10.93
2018-09-24T16:43:40.609Z,18.40
2018-09-24T16:46:13.216Z,11.10
2018-09-24T16:48:45.859Z,9.17
2018-09-24T16:51:18.581Z,10.50
2018-09-24T16:53:51.332Z,5.90
2018-09-24T16:56:23.931Z,7.57
2018-09-24T16:58:56.600Z,7.03
2018-09-24T17:01:29.169Z,2.73
2018-09-24T17:04:01.861Z,5.57
2018-09-24T17:06:34.451Z,6.33
2018-09-24T17:09:07.234Z,8.50
2018-09-24T17:11:39.867Z,6.50
2018-09-24T17:14:12.632Z,8.97
2018-09-24T17:16:45.301Z,4.47
2018-09-24T17:19:18.009Z,5.10
2018-09-24T17:21:50.636Z,6.17
2018-09-24T17:24:23.300Z,5.07
2018-09-24T17:26:56.071Z,5.97
2018-09-24T17:29:28.761Z,5.90
2018-09-24T17:32:01.506Z,7.73
2018-09-24T17:34:34.286Z,8.57
2018-09-24T17:37:06.890Z,5.87
2018-09-24T17:39:39.505Z,6.40
2018-09-24T17:42:12.196Z,5.90
2018-09-24T17:44:44.799Z,7.07
2018-09-24T17:47:17.461Z,5.00
2018-09-24T17:49:50.172Z,6.17
2018-09-24T17:52:22.796Z,5.13
2018-09-24T17:54:55.532Z,3.83
2018-09-24T17:57:28.202Z,9.50
2018-09-24T18:00:00.940Z,6.20
2018-09-24T18:02:33.546Z,5.30
2018-09-24T18:05:06.294Z,7.20
2018-09-24T18:07:39.003Z,4.23
2018-09-24T18:10:11.680Z,5.13
2018-09-24T18:12:44.384Z,6.47
2018-09-24T18:15:17.025Z,5.40
2018-09-24T18:17:49.650Z,7.47
2018-09-24T18:20:22.334Z,8.60
2018-09-24T18:22:55.152Z,8.43
2018-09-24T18:25:27.819Z,5.60
2018-09-24T18:28:00.492Z,5.20
2018-09-24T18:30:33.278Z,7.67
2018-09-24T18:33:05.833Z,10.17
2018-09-24T18:35:38.544Z,7.67
2018-09-24T18:38:11.289Z,8.60
2018-09-24T18:40:43.935Z,5.73
2018-09-24T18:43:16.673Z,7.83
2018-09-24T18:45:49.361Z,6.73
2018-09-24T18:48:22.141Z,9.60
2018-09-24T18:50:54.833Z,6.07
2018-09-24T18:53:27.488Z,7.27
2018-09-24T18:56:00.125Z,6.10
2018-09-24T18:58:32.800Z,6.47
2018-09-24T19:01:05.465Z,7.53
2018-09-24T19:03:38.009Z,4.67
2018-09-24T19:06:10.755Z,4.73
2018-09-24T19:08:43.513Z,4.77
2018-09-24T19:11:16.267Z,7.47
2018-09-24T19:13:48.909Z,5.30
2018-09-24T19:16:21.632Z,6.67
2018-09-24T19:18:54.235Z,8.17
2018-09-24T19:21:26.819Z,5.17
2018-09-24T19:23:59.516Z,7.33
2018-09-24T19:26:32.458Z,5.17
2018-09-24T19:29:06.365Z,7.83
2018-09-24T19:31:39.173Z,6.40
2018-09-24T19:34:11.779Z,6.03
2018-09-24T19:36:44.467Z,6.53
2018-09-24T19:39:17.077Z,6.43
2018-09-24T19:41:49.779Z,6.63
2018-09-24T19:44:22.359Z,7.13
2018-09-24T19:46:55.051Z,5.63
2018-09-24T19:49:27.627Z,7.60
2018-09-24T19:52:00.325Z,8.97
2018-09-24T19:54:32.985Z,5.80
2018-09-24T19:57:05.656Z,7.23
2018-09-24T19:59:38.321Z,6.97
2018-09-24T20:02:11.017Z,8.03
2018-09-24T20:04:43.724Z,6.37
2018-09-24T20:07:16.376Z,4.93
2018-09-24T20:09:49.064Z,6.03
2018-09-24T20:12:21.744Z,8.70
2018-09-24T20:14:54.420Z,9.90
2018-09-24T20:17:26.997Z,5.20
2018-09-24T20:19:59.715Z,8.30
2018-09-24T20:22:32.361Z,6.33
2018-09-24T20:25:04.998Z,8.57
2018-09-24T20:27:37.601Z,7.07
2018-09-24T20:30:10.125Z,3.73
2018-09-24T20:32:42.790Z,8.30
2018-09-24T20:35:15.387Z,4.37
2018-09-24T20:37:54.837Z,11.47
2018-09-24T20:40:27.537Z,6.13
2018-09-24T20:43:00.200Z,5.77
2018-09-24T20:45:32.909Z,6.93
2018-09-24T20:48:05.584Z,5.67
2018-09-24T20:50:38.312Z,5.67
2018-09-24T20:53:10.921Z,10.10
2018-09-24T20:55:43.677Z,6.43
2018-09-24T20:58:16.327Z,8.10
2018-09-24T21:00:49.032Z,5.53
2018-09-24T21:03:21.694Z,6.53
2018-09-24T21:06:01.448Z,8.33
2018-09-24T21:08:34.252Z,5.00
2018-09-24T21:11:06.948Z,6.90
2018-09-24T21:13:39.689Z,6.70
2018-09-24T21:16:12.372Z,8.43
2018-09-24T21:18:45.093Z,7.77
2018-09-24T21:21:17.648Z,7.70
2018-09-24T21:23:50.361Z,6.80
2018-09-24T21:26:22.935Z,8.33
2018-09-24T21:28:55.603Z,4.17
2018-09-24T21:31:28.488Z,6.70
2018-09-24T21:34:01.388Z,5.40
2018-09-24T21:36:34.058Z,3.93
2018-09-24T21:39:06.720Z,7.13
2018-09-24T21:41:39.449Z,4.43
2018-09-24T21:44:13.032Z,9.03
2018-09-24T21:46:45.733Z,8.97
2018-09-24T21:49:18.603Z,6.17
2018-09-24T21:51:51.237Z,6.13
2018-09-24T21:54:23.987Z,8.07
2018-09-24T21:56:56.651Z,7.97
2018-09-24T21:59:29.453Z,5.07
2018-09-24T22:02:02.228Z,3.57
2018-09-24T22:04:34.932Z,5.60
2018-09-24T22:07:07.620Z,4.97
2018-09-24T22:09:40.386Z,3.87
2018-09-24T22:12:13.126Z,7.80
2018-09-24T22:14:46.379Z,8.63
2018-09-24T22:17:19.104Z,6.57
2018-09-24T22:19:51.747Z,5.00
2018-09-24T22:22:24.470Z,3.93
2018-09-24T22:24:57.179Z,6.87
2018-09-24T22:27:29.823Z,6.03
2018-09-24T22:30:02.574Z,4.83
2018-09-24T22:32:35.244Z,4.17
2018-09-24T22:35:07.932Z,6.20
2018-09-24T22:37:40.673Z,7.23
2018-09-24T22:40:13.396Z,5.93
2018-09-24T22:42:46.127Z,6.93
2018-09-24T22:45:18.968Z,4.70
2018-09-24T22:47:51.567Z,4.60
2018-09-24T22:50:24.266Z,6.60
2018-09-24T22:52:56.885Z,4.53
2018-09-24T22:55:29.648Z,5.37
2018-09-24T22:58:02.349Z,5.23
2018-09-24T23:00:35.092Z,6.07
2018-09-24T23:03:07.674Z,5.23
2018-09-24T23:05:40.384Z,6.97
2018-09-24T23:08:13.139Z,6.27
2018-09-24T23:10:45.877Z,3.67
2018-09-24T23:13:18.564Z,4.47
2018-09-24T23:15:51.256Z,4.70
2018-09-24T23:18:23.872Z,6.13
2018-09-24T23:20:56.569Z,5.77
2018-09-24T23:23:29.232Z,8.47
2018-09-24T23:26:01.876Z,4.37
2018-09-24T23:28:34.619Z,5.37
2018-09-24T23:31:07.280Z,5.13
2018-09-24T23:33:39.882Z,6.70
2018-09-24T23:36:12.677Z,3.53
2018-09-24T23:38:45.418Z,7.53
2018-09-24T23:41:18.297Z,6.53
2018-09-24T23:43:50.932Z,6.90
2018-09-24T23:46:23.700Z,4.27
2018-09-24T23:48:56.304Z,5.13
2018-09-24T23:51:28.933Z,7.25
2018-09-24T23:54:01.648Z,5.60
2018-09-24T23:56:34.330Z,5.45
2018-09-24T23:59:07.065Z,5.53
